createdAt,value
2022-12-03T00:00:58.993Z,69.62
2022-12-03T00:03:30.731Z,69.66
2022-12-03T00:06:01.577Z,69.60
2022-12-03T00:08:32.466Z,69.56
2022-12-03T00:11:03.429Z,69.65
2022-12-03T00:13:34.290Z,69.54
2022-12-03T00:16:05.700Z,69.69
2022-12-03T00:18:36.729Z,69.63
2022-12-03T00:21:08.139Z,69.38
2022-12-03T00:23:42.225Z,69.35
2022-12-03T00:26:13.852Z,69.72
2022-12-03T00:28:44.738Z,69.58
2022-12-03T00:31:15.597Z,69.57
2022-12-03T00:33:46.571Z,69.47
2022-12-03T00:36:17.453Z,69.24
2022-12-03T00:38:48.805Z,69.15
2022-12-03T00:41:19.793Z,69.11
2022-12-03T00:43:50.683Z,69.13
2022-12-03T00:46:21.968Z,69.25
2022-12-03T00:48:53.105Z,69.15
2022-12-03T00:51:23.964Z,69.16
2022-12-03T00:53:55.048Z,69.37
2022-12-03T00:56:26.319Z,69.70
2022-12-03T00:58:57.296Z,69.87
2022-12-03T01:01:28.697Z,70.08
2022-12-03T01:04:00.018Z,70.11
2022-12-03T01:06:30.893Z,70.22
2022-12-03T01:09:01.884Z,70.26
2022-12-03T01:11:38.804Z,70.10
2022-12-03T01:14:11.949Z,70.13
2022-12-03T01:16:43.658Z,70.07
2022-12-03T01:19:16.424Z,69.82
2022-12-03T01:21:48.891Z,69.51
2022-12-03T01:24:22.901Z,69.56
2022-12-03T01:26:55.787Z,69.66
2022-12-03T01:29:26.808Z,69.62
2022-12-03T01:32:15.381Z,69.66
2022-12-03T01:34:47.032Z,69.70
2022-12-03T01:37:18.618Z,69.88
2022-12-03T01:39:49.495Z,69.60
2022-12-03T01:42:22.953Z,69.55
2022-12-03T01:44:57.224Z,69.32
2022-12-03T01:47:32.174Z,69.73
2022-12-03T01:50:07.603Z,69.64
2022-12-03T01:52:40.387Z,69.41
2022-12-03T01:55:17.692Z,69.44
2022-12-03T01:57:51.389Z,69.16
2022-12-03T02:00:27.806Z,69.34
2022-12-03T02:03:01.570Z,69.08
2022-12-03T02:05:34.354Z,68.92
2022-12-03T02:08:18.741Z,69.02
2022-12-03T02:10:49.655Z,69.05
2022-12-03T02:13:20.734Z,69.00
2022-12-03T02:15:51.727Z,69.06
2022-12-03T02:18:22.864Z,68.98
2022-12-03T02:21:04.258Z,69.00
2022-12-03T02:23:42.975Z,68.55
2022-12-03T02:26:14.129Z,68.97
2022-12-03T02:28:45.188Z,68.97
2022-12-03T02:31:16.352Z,68.91
2022-12-03T02:33:47.454Z,69.07
2022-12-03T02:36:19.318Z,69.17
2022-12-03T02:38:51.854Z,69.22
2022-12-03T02:41:41.067Z,69.50
2022-12-03T02:44:12.804Z,69.12
2022-12-03T02:46:44.357Z,69.12
2022-12-03T02:49:15.327Z,69.23
2022-12-03T02:51:46.472Z,69.41
2022-12-03T02:54:17.507Z,69.29
2022-12-03T02:56:48.366Z,69.28
2022-12-03T02:59:19.454Z,69.32
2022-12-03T03:01:50.314Z,69.29
2022-12-03T03:04:22.511Z,69.03
2022-12-03T03:06:54.034Z,69.24
2022-12-03T03:09:25.304Z,69.26
2022-12-03T03:11:56.441Z,69.29
2022-12-03T03:14:27.387Z,69.08
2022-12-03T03:16:59.016Z,68.78
2022-12-03T03:19:30.499Z,69.19
2022-12-03T03:22:02.361Z,69.10
2022-12-03T03:24:33.710Z,69.05
2022-12-03T03:27:05.407Z,69.33
2022-12-03T03:29:37.010Z,69.13
2022-12-03T03:32:08.255Z,69.21
2022-12-03T03:34:39.180Z,69.20
2022-12-03T03:37:10.122Z,69.33
2022-12-03T03:39:40.985Z,69.35
2022-12-03T03:42:12.241Z,69.42
2022-12-03T03:44:43.280Z,69.26
2022-12-03T03:47:15.226Z,69.24
2022-12-03T03:49:48.048Z,69.29
2022-12-03T03:52:19.444Z,69.11
2022-12-03T03:54:51.013Z,69.25
2022-12-03T03:57:22.158Z,69.03
2022-12-03T03:59:53.018Z,69.08
2022-12-03T04:02:26.133Z,69.17
2022-12-03T04:04:57.043Z,69.12
2022-12-03T04:07:28.914Z,68.96
2022-12-03T04:09:59.854Z,68.94
2022-12-03T04:12:48.295Z,68.69
2022-12-03T04:15:19.370Z,68.86
2022-12-03T04:18:10.944Z,69.07
2022-12-03T04:20:42.119Z,68.88
2022-12-03T04:23:12.980Z,69.03
2022-12-03T04:26:01.671Z,68.89
2022-12-03T04:28:49.163Z,69.17
2022-12-03T04:31:37.584Z,69.07
2022-12-03T04:34:26.144Z,68.81
2022-12-03T04:36:57.260Z,68.73
2022-12-03T04:39:28.021Z,68.73
2022-12-03T04:41:58.959Z,68.79
2022-12-03T04:44:36.869Z,68.58
2022-12-03T04:47:10.624Z,68.93
2022-12-03T04:49:43.137Z,69.12
2022-12-03T04:52:15.622Z,69.04
2022-12-03T04:54:47.187Z,69.05
2022-12-03T04:57:18.121Z,68.98
2022-12-03T04:59:49.060Z,69.07
2022-12-03T05:02:20.242Z,69.07
2022-12-03T05:04:51.401Z,68.82
2022-12-03T05:07:22.496Z,68.88
2022-12-03T05:09:53.527Z,68.86
2022-12-03T05:12:24.476Z,68.68
2022-12-03T05:14:55.690Z,68.59
2022-12-03T05:17:26.972Z,68.40
2022-12-03T05:20:15.598Z,68.34
2022-12-03T05:22:46.390Z,68.51
2022-12-03T05:25:17.515Z,68.64
2022-12-03T05:27:48.422Z,68.73
2022-12-03T05:30:19.980Z,69.10
2022-12-03T05:32:51.239Z,69.17
2022-12-03T05:35:22.303Z,68.70
2022-12-03T05:37:53.204Z,68.91
2022-12-03T05:40:24.277Z,69.16
2022-12-03T05:42:55.290Z,69.38
2022-12-03T05:45:28.932Z,69.11
2022-12-03T05:48:00.991Z,69.11
2022-12-03T05:50:35.188Z,69.27
2022-12-03T05:53:20.091Z,69.35
2022-12-03T05:55:51.378Z,68.92
2022-12-03T05:58:22.259Z,68.92
2022-12-03T06:00:53.080Z,68.75
2022-12-03T06:03:24.018Z,68.78
2022-12-03T06:05:55.084Z,68.78
2022-12-03T06:08:25.919Z,68.85
2022-12-03T06:10:56.741Z,69.08
2022-12-03T06:13:27.698Z,68.75
2022-12-03T06:15:58.593Z,68.73
2022-12-03T06:18:29.581Z,68.95
2022-12-03T06:21:00.769Z,68.77
2022-12-03T06:23:31.583Z,68.80
2022-12-03T06:26:02.333Z,69.00
2022-12-03T06:28:33.159Z,69.08
2022-12-03T06:31:03.974Z,68.97
2022-12-03T06:33:35.165Z,69.20
2022-12-03T06:36:06.824Z,69.26
2022-12-03T06:38:37.717Z,69.07
2022-12-03T06:41:08.756Z,68.87
2022-12-03T06:43:39.619Z,69.32
2022-12-03T06:46:10.530Z,69.37
2022-12-03T06:48:41.479Z,69.33
2022-12-03T06:51:12.494Z,69.31
2022-12-03T06:53:43.359Z,68.93
2022-12-03T06:56:14.429Z,68.98
2022-12-03T06:58:45.344Z,69.20
2022-12-03T07:01:16.366Z,69.04
2022-12-03T07:03:47.653Z,69.33
2022-12-03T07:06:18.879Z,69.62
2022-12-03T07:08:49.731Z,69.31
2022-12-03T07:11:32.757Z,69.50
2022-12-03T07:14:06.361Z,69.27
2022-12-03T07:16:38.035Z,69.21
2022-12-03T07:19:09.879Z,69.42
2022-12-03T07:21:41.121Z,69.14
2022-12-03T07:24:12.599Z,69.44
2022-12-03T07:26:43.402Z,69.31
2022-12-03T07:29:14.250Z,69.37
2022-12-03T07:31:45.066Z,69.23
2022-12-03T07:34:15.862Z,69.24
2022-12-03T07:36:46.756Z,69.11
2022-12-03T07:39:17.898Z,69.34
2022-12-03T07:41:48.700Z,69.17
2022-12-03T07:44:19.537Z,69.12
2022-12-03T07:46:50.584Z,69.27
2022-12-03T07:49:21.465Z,69.35
2022-12-03T07:51:54.631Z,69.24
2022-12-03T07:54:26.119Z,69.41
2022-12-03T07:57:01.402Z,69.59
2022-12-03T07:59:32.951Z,69.56
2022-12-03T08:02:03.986Z,69.65
2022-12-03T08:04:34.910Z,69.59
2022-12-03T08:07:06.363Z,69.37
2022-12-03T08:09:38.841Z,69.35
2022-12-03T08:12:16.997Z,69.25
2022-12-03T08:14:47.790Z,69.38
2022-12-03T08:17:20.006Z,69.18
2022-12-03T08:19:51.206Z,69.49
2022-12-03T08:22:22.452Z,69.39
2022-12-03T08:24:53.576Z,69.39
2022-12-03T08:27:24.809Z,69.33
2022-12-03T08:30:07.850Z,69.35
2022-12-03T08:32:38.697Z,69.32
2022-12-03T08:35:14.784Z,69.41
2022-12-03T08:37:45.536Z,69.63
2022-12-03T08:40:28.344Z,69.70
2022-12-03T08:42:59.129Z,69.83
2022-12-03T08:45:39.979Z,69.89
2022-12-03T08:48:29.599Z,69.68
2022-12-03T08:51:01.895Z,69.62
2022-12-03T08:53:37.839Z,69.44
2022-12-03T08:56:20.941Z,69.78
2022-12-03T08:58:54.868Z,69.68
2022-12-03T09:01:35.471Z,69.90
2022-12-03T09:04:22.722Z,69.95
2022-12-03T09:06:54.497Z,70.25
2022-12-03T09:09:25.828Z,70.11
2022-12-03T09:11:57.015Z,70.07
2022-12-03T09:14:29.071Z,70.05
2022-12-03T09:16:59.993Z,70.26
2022-12-03T09:19:32.121Z,70.34
2022-12-03T09:22:02.935Z,70.49
2022-12-03T09:24:33.759Z,70.39
2022-12-03T09:27:04.632Z,70.43
2022-12-03T09:29:35.630Z,70.46
2022-12-03T09:32:06.959Z,70.45
2022-12-03T09:34:38.013Z,70.23
2022-12-03T09:37:09.343Z,70.35
2022-12-03T09:39:40.507Z,70.28
2022-12-03T09:42:12.575Z,70.30
2022-12-03T09:44:43.637Z,70.30
2022-12-03T09:47:15.295Z,70.20
2022-12-03T09:49:46.511Z,70.36
2022-12-03T09:52:24.932Z,70.36
2022-12-03T09:54:56.762Z,70.40
2022-12-03T09:57:27.781Z,70.28
2022-12-03T09:59:58.697Z,70.20
2022-12-03T10:02:34.378Z,69.97
2022-12-03T10:05:03.755Z,69.99
2022-12-03T10:07:34.734Z,70.18
2022-12-03T10:10:07.840Z,70.25
2022-12-03T10:12:38.731Z,70.23
2022-12-03T10:15:15.025Z,70.24
2022-12-03T10:17:46.930Z,70.48
2022-12-03T10:20:20.413Z,70.51
2022-12-03T10:22:51.677Z,70.57
2022-12-03T10:25:24.550Z,70.79
2022-12-03T10:28:01.428Z,70.40
2022-12-03T10:30:32.970Z,70.18
2022-12-03T10:33:18.859Z,69.95
2022-12-03T10:35:50.455Z,69.87
2022-12-03T10:38:24.190Z,69.68
2022-12-03T10:40:55.497Z,69.66
2022-12-03T10:43:27.563Z,69.59
2022-12-03T10:46:18.303Z,69.71
2022-12-03T10:49:17.101Z,69.75
2022-12-03T10:51:49.189Z,69.66
2022-12-03T10:54:22.395Z,69.83
2022-12-03T10:56:54.750Z,70.02
2022-12-03T10:59:29.437Z,69.92
2022-12-03T11:02:00.631Z,69.70
2022-12-03T11:04:36.015Z,69.64
2022-12-03T11:07:13.277Z,69.83
2022-12-03T11:09:46.993Z,70.02
2022-12-03T11:12:24.623Z,70.18
2022-12-03T11:15:08.073Z,70.19
2022-12-03T11:17:49.071Z,70.32
2022-12-03T11:20:57.150Z,70.54
2022-12-03T11:24:17.528Z,70.31
2022-12-03T11:27:20.460Z,70.31
2022-12-03T11:30:03.159Z,70.30
2022-12-03T11:33:06.846Z,70.46
2022-12-03T11:36:15.580Z,70.43
2022-12-03T11:38:58.200Z,70.36
2022-12-03T11:41:32.599Z,70.23
2022-12-03T11:44:34.405Z,70.41
2022-12-03T11:47:15.150Z,70.41
2022-12-03T11:49:52.592Z,70.43
2022-12-03T11:52:40.730Z,70.46
2022-12-03T11:55:25.665Z,70.46
2022-12-03T11:58:02.004Z,70.52
2022-12-03T12:00:34.844Z,70.46
2022-12-03T12:03:06.237Z,70.56
2022-12-03T12:05:37.981Z,70.54
2022-12-03T12:08:21.466Z,70.48
2022-12-03T12:10:52.436Z,70.63
2022-12-03T12:13:44.999Z,70.67
2022-12-03T12:16:41.429Z,70.50
2022-12-03T12:19:43.344Z,70.62
2022-12-03T12:22:31.780Z,70.66
2022-12-03T12:25:03.943Z,70.62
2022-12-03T12:27:41.096Z,70.61
2022-12-03T12:30:16.907Z,70.68
2022-12-03T12:32:50.226Z,70.54
2022-12-03T12:35:23.577Z,70.64
2022-12-03T12:38:01.782Z,70.63
2022-12-03T12:40:36.302Z,70.42
2022-12-03T12:43:24.083Z,70.48
2022-12-03T12:45:58.075Z,70.58
2022-12-03T12:48:33.012Z,70.47
2022-12-03T12:51:12.846Z,70.76
2022-12-03T12:53:44.762Z,70.72
2022-12-03T12:56:24.767Z,70.62
2022-12-03T12:58:58.272Z,70.69
2022-12-03T13:01:31.760Z,70.70
2022-12-03T13:04:03.504Z,70.58
2022-12-03T13:06:35.802Z,70.62
2022-12-03T13:09:10.304Z,70.66
2022-12-03T13:11:46.033Z,70.77
2022-12-03T13:14:23.263Z,70.96
2022-12-03T13:16:56.172Z,70.89
2022-12-03T13:19:29.030Z,70.78
2022-12-03T13:22:02.129Z,70.72
2022-12-03T13:24:37.163Z,70.68
2022-12-03T13:27:26.689Z,70.77
2022-12-03T13:30:00.986Z,71.02
2022-12-03T13:32:34.818Z,70.87
2022-12-03T13:35:16.258Z,70.85
2022-12-03T13:37:47.577Z,70.94
2022-12-03T13:40:27.272Z,70.90
2022-12-03T13:42:58.394Z,70.96
2022-12-03T13:45:36.960Z,70.90
2022-12-03T13:48:21.326Z,70.95
2022-12-03T13:50:53.739Z,71.02
2022-12-03T13:53:26.598Z,70.73
2022-12-03T13:56:02.335Z,70.78
2022-12-03T13:58:33.116Z,70.95
2022-12-03T14:01:04.331Z,70.80
2022-12-03T14:03:36.330Z,70.81
2022-12-03T14:06:08.363Z,70.96
2022-12-03T14:08:39.216Z,71.10
2022-12-03T14:11:32.393Z,71.10
2022-12-03T14:14:03.546Z,71.18
2022-12-03T14:16:34.458Z,71.20
2022-12-03T14:19:06.374Z,71.22
2022-12-03T14:21:37.587Z,71.48
2022-12-03T14:24:10.193Z,71.37
2022-12-03T14:26:42.788Z,71.45
2022-12-03T14:29:13.695Z,71.22
2022-12-03T14:31:44.711Z,71.45
2022-12-03T14:34:16.725Z,71.72
2022-12-03T14:36:48.455Z,71.85
2022-12-03T14:39:19.671Z,71.73
2022-12-03T14:42:10.160Z,71.78
2022-12-03T14:44:43.317Z,71.63
2022-12-03T14:47:16.414Z,71.62
2022-12-03T14:49:47.632Z,71.53
2022-12-03T14:52:19.484Z,71.74
2022-12-03T14:54:50.484Z,71.74
2022-12-03T14:57:21.590Z,71.65
2022-12-03T14:59:53.120Z,71.81
2022-12-03T15:02:24.504Z,71.82
2022-12-03T15:04:56.743Z,72.01
2022-12-03T15:07:28.292Z,72.22
2022-12-03T15:09:59.696Z,71.98
2022-12-03T15:12:34.948Z,72.23
2022-12-03T15:15:04.897Z,72.25
2022-12-03T15:17:36.040Z,72.35
2022-12-03T15:20:08.900Z,72.45
2022-12-03T15:22:39.713Z,72.39
2022-12-03T15:25:11.696Z,72.39
2022-12-03T15:27:44.056Z,72.43
2022-12-03T15:30:15.515Z,72.60
2022-12-03T15:32:47.508Z,72.41
2022-12-03T15:35:19.080Z,72.36
2022-12-03T15:37:50.179Z,72.53
2022-12-03T15:40:23.167Z,72.77
2022-12-03T15:43:00.568Z,72.76
2022-12-03T15:45:32.554Z,72.57
2022-12-03T15:48:03.775Z,72.67
2022-12-03T15:50:39.918Z,72.59
2022-12-03T15:53:15.466Z,72.71
2022-12-03T15:55:46.683Z,72.52
2022-12-03T15:58:17.549Z,72.19
2022-12-03T16:00:48.377Z,72.33
2022-12-03T16:03:19.509Z,72.60
2022-12-03T16:05:52.125Z,72.70
2022-12-03T16:08:24.232Z,72.76
2022-12-03T16:10:55.590Z,73.07
2022-12-03T16:13:26.514Z,72.89
2022-12-03T16:15:57.462Z,72.88
2022-12-03T16:18:29.048Z,73.04
2022-12-03T16:20:59.900Z,73.00
2022-12-03T16:23:31.295Z,72.91
2022-12-03T16:26:02.264Z,73.02
2022-12-03T16:28:33.924Z,73.09
2022-12-03T16:31:05.113Z,73.09
2022-12-03T16:33:36.134Z,73.22
2022-12-03T16:36:07.954Z,72.72
2022-12-03T16:38:38.852Z,72.71
2022-12-03T16:41:10.464Z,72.86
2022-12-03T16:43:41.479Z,72.90
2022-12-03T16:46:25.790Z,73.10
2022-12-03T16:48:58.744Z,73.26
2022-12-03T16:51:31.201Z,73.23
2022-12-03T16:54:02.012Z,73.15
2022-12-03T16:56:33.229Z,73.34
2022-12-03T16:59:04.395Z,73.42
2022-12-03T17:01:35.538Z,73.49
2022-12-03T17:04:06.673Z,73.37
2022-12-03T17:06:37.758Z,73.51
2022-12-03T17:09:08.599Z,73.43
2022-12-03T17:11:39.716Z,73.48
2022-12-03T17:14:10.531Z,73.57
2022-12-03T17:16:41.322Z,73.48
2022-12-03T17:19:12.755Z,73.64
2022-12-03T17:21:43.748Z,73.78
2022-12-03T17:24:14.819Z,73.63
2022-12-03T17:26:46.369Z,73.46
2022-12-03T17:29:17.467Z,73.68
2022-12-03T17:31:48.410Z,73.63
2022-12-03T17:34:19.556Z,73.59
2022-12-03T17:36:50.776Z,73.65
2022-12-03T17:39:21.858Z,73.66
2022-12-03T17:41:53.305Z,73.52
2022-12-03T17:44:24.552Z,73.72
2022-12-03T17:46:55.815Z,73.62
2022-12-03T17:49:31.581Z,73.65
2022-12-03T17:52:03.341Z,73.61
2022-12-03T17:55:08.608Z,73.45
2022-12-03T17:57:32.743Z,73.62
2022-12-03T18:00:10.896Z,73.92
2022-12-03T18:02:46.621Z,73.91
2022-12-03T18:05:18.104Z,73.54
2022-12-03T18:07:49.302Z,73.81
2022-12-03T18:10:21.370Z,73.84
2022-12-03T18:13:01.305Z,73.73
2022-12-03T18:15:33.561Z,73.81
2022-12-03T18:18:05.052Z,73.77
2022-12-03T18:20:37.456Z,73.55
2022-12-03T18:23:08.745Z,73.75
2022-12-03T18:25:40.820Z,73.69
2022-12-03T18:28:11.851Z,73.74
2022-12-03T18:30:47.533Z,73.95
2022-12-03T18:33:23.430Z,73.90
2022-12-03T18:35:58.408Z,73.81
2022-12-03T18:38:32.654Z,73.84
2022-12-03T18:41:03.616Z,73.70
2022-12-03T18:43:34.760Z,74.05
2022-12-03T18:46:09.659Z,73.98
2022-12-03T18:48:48.954Z,74.07
2022-12-03T18:51:22.182Z,74.18
2022-12-03T18:53:53.761Z,74.23
2022-12-03T18:56:24.889Z,74.27
2022-12-03T18:58:55.967Z,74.34
2022-12-03T19:01:27.459Z,74.40
2022-12-03T19:03:58.642Z,74.24
2022-12-03T19:06:30.685Z,74.22
2022-12-03T19:09:01.867Z,74.54
2022-12-03T19:11:34.076Z,74.70
2022-12-03T19:14:05.269Z,74.90
2022-12-03T19:16:45.605Z,74.84
2022-12-03T19:19:16.617Z,74.77
2022-12-03T19:21:47.477Z,74.67
2022-12-03T19:24:25.902Z,74.72
2022-12-03T19:26:56.883Z,74.52
2022-12-03T19:29:28.005Z,74.77
2022-12-03T19:32:04.064Z,74.70
2022-12-03T19:34:35.137Z,74.66
2022-12-03T19:37:08.826Z,74.64
2022-12-03T19:39:39.897Z,74.75
2022-12-03T19:42:10.788Z,74.84
2022-12-03T19:44:41.952Z,74.79
2022-12-03T19:47:13.838Z,74.73
2022-12-03T19:49:44.959Z,74.62
2022-12-03T19:52:15.872Z,74.34
2022-12-03T19:54:47.594Z,74.47
2022-12-03T19:57:23.325Z,74.65
2022-12-03T19:59:55.240Z,74.55
2022-12-03T20:02:26.619Z,74.66
2022-12-03T20:04:57.826Z,74.69
2022-12-03T20:07:28.690Z,74.81
2022-12-03T20:09:59.871Z,74.83
2022-12-03T20:12:31.013Z,74.82
2022-12-03T20:15:01.857Z,74.95
2022-12-03T20:17:32.856Z,74.86
2022-12-03T20:20:04.150Z,74.77
2022-12-03T20:22:35.234Z,74.75
2022-12-03T20:25:06.695Z,74.71
2022-12-03T20:27:37.963Z,74.59
2022-12-03T20:30:11.452Z,74.64
2022-12-03T20:32:45.444Z,74.56
2022-12-03T20:35:16.904Z,74.82
2022-12-03T20:37:47.879Z,74.88
2022-12-03T20:40:19.221Z,74.78
2022-12-03T20:42:51.048Z,74.91
2022-12-03T20:45:22.237Z,75.01
2022-12-03T20:47:53.656Z,75.07
2022-12-03T20:50:24.801Z,74.85
2022-12-03T20:53:16.672Z,74.63
2022-12-03T20:55:46.768Z,74.65
2022-12-03T20:58:17.943Z,74.73
2022-12-03T21:00:49.185Z,74.85
2022-12-03T21:03:20.441Z,74.74
2022-12-03T21:05:51.369Z,74.73
2022-12-03T21:08:40.059Z,74.85
2022-12-03T21:11:14.609Z,75.01
2022-12-03T21:13:46.295Z,74.61
2022-12-03T21:16:34.221Z,74.76
2022-12-03T21:19:11.059Z,74.91
2022-12-03T21:21:42.208Z,75.03
2022-12-03T21:24:14.500Z,75.12
2022-12-03T21:26:45.420Z,74.99
2022-12-03T21:29:16.497Z,75.15
2022-12-03T21:31:47.729Z,75.34
2022-12-03T21:34:18.868Z,75.37
2022-12-03T21:36:49.990Z,75.35
2022-12-03T21:39:21.144Z,75.38
2022-12-03T21:42:18.975Z,75.08
2022-12-03T21:44:43.374Z,75.14
2022-12-03T21:47:14.743Z,75.20
2022-12-03T21:49:46.160Z,75.02
2022-12-03T21:52:17.175Z,75.13
2022-12-03T21:54:48.542Z,75.09
2022-12-03T21:57:19.528Z,75.12
2022-12-03T21:59:50.721Z,75.33
2022-12-03T22:02:22.103Z,75.61
2022-12-03T22:04:53.770Z,75.75
2022-12-03T22:07:25.152Z,75.78
2022-12-03T22:09:56.682Z,75.72
2022-12-03T22:12:28.143Z,75.92
2022-12-03T22:14:59.216Z,75.94
2022-12-03T22:17:30.313Z,75.90
2022-12-03T22:20:01.571Z,75.67
2022-12-03T22:22:32.699Z,75.48
2022-12-03T22:25:04.061Z,75.65
2022-12-03T22:27:34.891Z,75.55
2022-12-03T22:30:07.220Z,75.61
2022-12-03T22:32:39.075Z,75.55
2022-12-03T22:35:11.839Z,75.74
2022-12-03T22:37:42.897Z,75.76
2022-12-03T22:40:14.957Z,75.80
2022-12-03T22:42:50.761Z,75.81
2022-12-03T22:45:22.309Z,75.59
2022-12-03T22:47:53.595Z,75.64
2022-12-03T22:50:24.785Z,75.33
2022-12-03T22:52:55.813Z,75.59
2022-12-03T22:55:26.787Z,75.40
2022-12-03T22:57:57.551Z,75.63
2022-12-03T23:00:33.489Z,75.86
2022-12-03T23:03:04.626Z,75.96
2022-12-03T23:05:38.642Z,76.19
2022-12-03T23:08:11.891Z,76.18
2022-12-03T23:10:44.747Z,76.25
2022-12-03T23:13:16.967Z,76.16
2022-12-03T23:15:49.267Z,76.12
2022-12-03T23:18:21.019Z,76.23
2022-12-03T23:20:54.074Z,76.28
2022-12-03T23:23:27.386Z,76.41
2022-12-03T23:26:02.867Z,76.46
2022-12-03T23:28:35.119Z,76.37
2022-12-03T23:31:07.128Z,76.42
2022-12-03T23:33:38.684Z,76.40
2022-12-03T23:36:11.213Z,76.40
2022-12-03T23:38:42.028Z,76.39
2022-12-03T23:41:14.688Z,76.61
2022-12-03T23:43:46.100Z,76.62
2022-12-03T23:46:18.938Z,76.66
2022-12-03T23:48:50.026Z,76.57
2022-12-03T23:51:22.494Z,76.68
2022-12-03T23:53:54.051Z,76.61
2022-12-03T23:56:28.175Z,76.47
2022-12-03T23:58:59.513Z,76.62
